Time;durP1;ratioP1;P1;durP2;ratioP2;P2;SDS_P1;SDS_P2;PMS_P1;PMS_P2;Temp;Humidity;BMP_temperature;BMP_pressure;BME280_temperature;BME280_humidity;BME280_pressure;Samples;Min_cycle;Max_cycle;Signal;HPM_P1;HPM_P2
2023/02/22 00:01:41;;;;;;;4.17;3.30;;;9.20;99.90;;;;;;4144327;28;20026;-66
2023/02/22 00:03:42;;;;;;;6.87;4.23;;;9.20;99.90;;;;;;4145062;28;20038;-64
2023/02/22 00:05:46;;;;;;;4.50;3.10;;;9.20;99.90;;;;;;4145524;28;20042;-63
2023/02/22 00:07:47;;;;;;;3.80;2.80;;;9.20;99.90;;;;;;4145960;28;20112;-65
2023/02/22 00:09:48;;;;;;;6.57;3.20;;;9.20;99.90;;;;;;4145737;28;20026;-63
2023/02/22 00:11:50;;;;;;;4.40;3.23;;;9.20;99.90;;;;;;4146191;28;20030;-63
2023/02/22 00:13:51;;;;;;;5.47;3.47;;;9.20;99.90;;;;;;4147009;28;20029;-63
2023/02/22 00:15:52;;;;;;;5.47;3.87;;;9.20;99.90;;;;;;4151265;28;20535;-64
2023/02/22 00:17:53;;;;;;;7.13;3.70;;;9.20;99.90;;;;;;4162544;28;20135;-63
2023/02/22 00:19:55;;;;;;;6.03;3.27;;;9.20;99.90;;;;;;4159695;28;20473;-63
2023/02/22 00:21:56;;;;;;;4.80;3.47;;;9.20;99.90;;;;;;4157991;28;20033;-63
2023/02/22 00:23:57;;;;;;;5.23;3.00;;;9.20;99.90;;;;;;4161441;28;20482;-63
2023/02/22 00:26:00;;;;;;;3.93;3.37;;;9.10;99.90;;;;;;4162474;28;20051;-73
2023/02/22 00:28:03;;;;;;;4.80;3.40;;;9.10;99.90;;;;;;4160875;28;20179;-63
2023/02/22 00:30:06;;;;;;;4.70;3.87;;;9.10;99.90;;;;;;4162537;28;20045;-63
2023/02/22 00:32:08;;;;;;;4.60;3.40;;;9.10;99.90;;;;;;4161358;28;20025;-63
2023/02/22 00:34:09;;;;;;;6.57;3.90;;;9.10;99.90;;;;;;4162422;28;20448;-64
2023/02/22 00:36:12;;;;;;;5.87;4.17;;;9.10;99.90;;;;;;4161172;28;20029;-67
2023/02/22 00:38:15;;;;;;;9.47;3.80;;;9.10;99.90;;;;;;4159081;28;20025;-64
2023/02/22 00:40:19;;;;;;;3.80;3.40;;;9.00;99.90;;;;;;4145072;28;20088;-63
2023/02/22 00:42:20;;;;;;;5.40;3.70;;;9.00;99.90;;;;;;4146132;28;20080;-62
2023/02/22 00:44:22;;;;;;;5.57;3.70;;;9.00;99.90;;;;;;4156351;28;20057;-63
2023/02/22 00:46:23;;;;;;;3.93;3.53;;;9.00;99.90;;;;;;4149544;28;20453;-66
2023/02/22 00:48:24;;;;;;;4.63;3.97;;;9.00;99.90;;;;;;4145518;28;20473;-63
2023/02/22 00:50:29;;;;;;;4.90;4.17;;;8.90;99.90;;;;;;4144779;28;20088;-63
2023/02/22 00:52:31;;;;;;;6.77;4.53;;;8.90;99.90;;;;;;4148111;28;20104;-63
2023/02/22 00:54:32;;;;;;;4.87;4.00;;;8.90;99.90;;;;;;4144609;28;20046;-62
2023/02/22 00:56:34;;;;;;;6.53;3.97;;;8.90;99.90;;;;;;4145819;28;20046;-65
2023/02/22 00:58:35;;;;;;;6.20;4.47;;;8.90;99.90;;;;;;4144605;28;20096;-63
2023/02/22 01:00:40;;;;;;;11.23;5.10;;;8.90;99.90;;;;;;4145736;28;20505;-62
2023/02/22 01:02:42;;;;;;;6.03;4.77;;;8.90;99.90;;;;;;4144534;28;20030;-68
2023/02/22 01:04:43;;;;;;;8.77;5.70;;;8.80;99.90;;;;;;4145761;28;20088;-71
2023/02/22 01:06:44;;;;;;;7.07;5.97;;;8.90;99.90;;;;;;4144370;28;20046;-64
2023/02/22 01:08:47;;;;;;;8.20;5.33;;;8.90;99.90;;;;;;4143978;28;20088;-63
2023/02/22 01:10:48;;;;;;;6.83;4.67;;;8.80;99.90;;;;;;4144085;28;20053;-63
2023/02/22 01:12:49;;;;;;;6.70;5.00;;;8.80;99.90;;;;;;4145762;28;20482;-62
2023/02/22 01:14:50;;;;;;;7.70;5.07;;;8.80;99.90;;;;;;4144721;28;20038;-63
2023/02/22 01:16:53;;;;;;;6.03;5.20;;;8.70;99.90;;;;;;4148117;28;20092;-62
2023/02/22 01:18:54;;;;;;;7.63;5.63;;;8.70;99.90;;;;;;4144921;28;20057;-66
2023/02/22 01:20:55;;;;;;;9.53;5.90;;;8.70;99.90;;;;;;4144659;28;20080;-63
2023/02/22 01:22:59;;;;;;;7.97;6.40;;;8.60;99.90;;;;;;4145138;28;20463;-62
2023/02/22 01:25:00;;;;;;;10.57;5.67;;;8.60;99.90;;;;;;4146825;28;20057;-69
2023/02/22 01:27:01;;;;;;;7.63;5.27;;;8.60;99.90;;;;;;4156948;28;20463;-63
2023/02/22 01:29:02;;;;;;;6.43;4.33;;;8.60;99.90;;;;;;4157511;28;20462;-63
2023/02/22 01:31:03;;;;;;;6.13;4.60;;;8.60;99.90;;;;;;4161836;28;20029;-63
2023/02/22 01:33:06;;;;;;;7.33;4.33;;;8.50;99.90;;;;;;4160594;28;20029;-63
2023/02/22 01:35:12;;;;;;;8.83;4.37;;;8.50;99.90;;;;;;4161386;28;20486;-62
2023/02/22 01:37:13;;;;;;;6.47;4.20;;;8.50;99.90;;;;;;4160619;28;20033;-63
2023/02/22 01:39:16;;;;;;;5.23;4.00;;;8.50;99.90;;;;;;4156376;28;20032;-62
2023/02/22 01:41:17;;;;;;;6.40;4.90;;;8.50;99.90;;;;;;4144095;28;20482;-62
2023/02/22 01:43:25;;;;;;;8.23;5.10;;;8.50;99.90;;;;;;4149431;28;20037;-63
2023/02/22 01:45:29;;;;;;;7.03;5.20;;;8.40;99.90;;;;;;4158319;28;20045;-62
2023/02/22 01:47:30;;;;;;;8.03;4.87;;;8.40;99.90;;;;;;4145429;28;20038;-62
2023/02/22 01:49:38;;;;;;;8.03;5.07;;;8.40;99.90;;;;;;4144415;28;20088;-61
2023/02/22 01:51:43;;;;;;;7.23;4.93;;;8.40;99.90;;;;;;4144517;28;20042;-63
2023/02/22 01:53:50;;;;;;;7.47;4.40;;;8.40;99.90;;;;;;4148298;28;20539;-62
2023/02/22 01:55:53;;;;;;;7.70;4.90;;;8.30;99.90;;;;;;4144921;28;20034;-63
2023/02/22 01:57:55;;;;;;;7.63;4.77;;;8.30;99.90;;;;;;4144463;28;20489;-62
2023/02/22 02:00:00;;;;;;;6.87;4.70;;;8.30;99.90;;;;;;4144558;28;20132;-62
2023/02/22 02:02:03;;;;;;;6.27;4.90;;;8.20;99.90;;;;;;4151258;28;20401;-62
2023/02/22 02:04:09;;;;;;;6.87;4.97;;;8.20;99.90;;;;;;4160553;28;20091;-63
2023/02/22 02:06:14;;;;;;;7.30;4.73;;;8.20;99.90;;;;;;4161118;28;20079;-62
2023/02/22 02:08:41;;;;;;;6.37;5.23;;;8.20;99.90;;;;;;4159140;28;20049;-63
2023/02/22 02:10:43;;;;;;;8.57;5.23;;;8.10;99.90;;;;;;4141463;28;20038;-63
2023/02/22 02:12:47;;;;;;;7.07;5.00;;;8.10;99.90;;;;;;4161093;28;20049;-72
2023/02/22 02:14:48;;;;;;;7.50;5.00;;;8.10;99.90;;;;;;4161239;28;20038;-62
2023/02/22 02:16:52;;;;;;;6.70;5.20;;;8.20;99.90;;;;;;4160355;28;20033;-62
2023/02/22 02:18:53;;;;;;;7.30;5.53;;;8.10;99.90;;;;;;4161476;28;20038;-63
2023/02/22 02:21:23;;;;;;;6.23;5.23;;;8.10;99.90;;;;;;4159990;28;20029;-66
2023/02/22 02:23:43;;;;;;;9.07;6.17;;;8.10;99.90;;;;;;4163324;28;20026;-62
2023/02/22 02:26:09;;;;;;;7.47;5.28;;;8.10;99.90;;;;;;4130993;28;20058;-62
2023/02/22 02:28:36;;;;;;;7.27;5.50;;;8.10;99.90;;;;;;4131112;28;20372;-63
2023/02/22 02:30:52;;;;;;;7.23;5.57;;;8.10;99.90;;;;;;4144233;28;20459;-62
2023/02/22 02:32:57;;;;;;;7.77;5.57;;;8.10;99.90;;;;;;4161349;28;20490;-67
2023/02/22 02:35:13;;;;;;;6.47;5.13;;;8.10;99.90;;;;;;4164156;28;20033;-62
2023/02/22 02:37:20;;;;;;;5.90;5.30;;;8.10;99.90;;;;;;4156000;28;20042;-64
2023/02/22 02:39:43;;;;;;;6.70;4.80;;;8.10;99.90;;;;;;4164158;28;20029;-62
2023/02/22 02:41:50;;;;;;;6.53;4.57;;;8.10;99.90;;;;;;4159554;28;20482;-63
2023/02/22 02:44:01;;;;;;;5.50;4.50;;;8.00;99.90;;;;;;4150435;28;20033;-63
2023/02/22 02:46:05;;;;;;;;;;;8.00;99.90;;;;;;4163351;28;20127;-64
2023/02/22 02:48:10;;;;;;;5.60;4.33;;;8.00;99.90;;;;;;4164241;28;19909;-64
2023/02/22 02:50:32;;;;;;;5.33;4.03;;;8.00;99.90;;;;;;4162611;28;20042;-63
2023/02/22 02:52:35;;;;;;;6.17;4.37;;;8.00;99.90;;;;;;4163991;28;20034;-64
2023/02/22 02:54:38;;;;;;;5.17;4.33;;;8.00;99.90;;;;;;4158486;28;20981;-63
2023/02/22 02:56:41;;;;;;;8.73;4.63;;;8.00;99.90;;;;;;4147549;28;20141;-64
2023/02/22 02:58:49;;;;;;;5.43;3.90;;;7.90;99.90;;;;;;4148333;28;20030;-63
2023/02/22 03:00:55;;;;;;;7.53;4.47;;;7.90;99.90;;;;;;4163119;28;20041;-63
2023/02/22 03:03:26;;;;;;;6.50;4.27;;;7.90;99.90;;;;;;4148876;28;20026;-63
2023/02/22 03:05:55;;;;;;;7.63;4.37;;;7.90;99.90;;;;;;4147151;28;20494;-63
2023/02/22 03:07:56;;;;;;;6.80;4.33;;;7.90;99.90;;;;;;4148783;28;20080;-65
2023/02/22 03:10:20;;;;;;;5.43;4.20;;;7.90;99.90;;;;;;4148352;28;20046;-63
2023/02/22 03:12:41;;;;;;;5.40;4.23;;;7.90;99.90;;;;;;4142406;28;20046;-63
2023/02/22 03:14:59;;;;;;;4.37;3.80;;;7.90;99.90;;;;;;4147449;28;20080;-62
2023/02/22 03:17:29;;;;;;;6.07;4.10;;;7.90;99.90;;;;;;4148417;28;20438;-62
2023/02/22 03:19:46;;;;;;;6.47;3.67;;;7.90;99.90;;;;;;4163614;28;20029;-62
2023/02/22 03:22:01;;;;;;;5.57;3.80;;;7.90;99.90;;;;;;4149687;28;20093;-63
2023/02/22 03:24:17;;;;;;;5.90;3.70;;;7.90;99.90;;;;;;4146894;28;20033;-63
2023/02/22 03:26:25;;;;;;;5.23;4.30;;;7.90;99.90;;;;;;4146061;28;20049;-62
2023/02/22 03:28:29;;;;;;;5.03;3.30;;;8.00;99.90;;;;;;4146536;28;20454;-63
2023/02/22 03:30:43;;;;;;;6.67;3.57;;;8.00;99.90;;;;;;4145612;28;20153;-62
2023/02/22 03:32:51;;;;;;;5.20;3.70;;;8.00;99.90;;;;;;4147804;28;20449;-63
2023/02/22 03:34:59;;;;;;;4.73;4.00;;;8.00;99.90;;;;;;4145169;28;20089;-61
2023/02/22 03:37:06;;;;;;;6.43;3.73;;;8.00;99.90;;;;;;4146429;28;20471;-62
2023/02/22 03:39:14;;;;;;;7.40;4.73;;;8.00;99.90;;;;;;4145299;28;20038;-61
2023/02/22 03:41:22;;;;;;;11.03;4.47;;;8.00;99.90;;;;;;4146277;28;20099;-61
2023/02/22 03:43:42;;;;;;;5.90;4.00;;;8.00;99.90;;;;;;4145795;28;20054;-62
2023/02/22 03:45:46;;;;;;;5.23;4.03;;;8.00;99.90;;;;;;4146382;28;20628;-61
2023/02/22 03:47:50;;;;;;;5.43;4.00;;;8.00;99.90;;;;;;4148672;28;20037;-61
2023/02/22 03:50:05;;;;;;;7.20;4.57;;;8.00;99.90;;;;;;4162890;28;20041;-62
2023/02/22 03:52:07;;;;;;;5.67;4.47;;;8.00;99.90;;;;;;4145887;28;20046;-65
2023/02/22 03:54:15;;;;;;;6.87;4.37;;;7.90;99.90;;;;;;4145970;28;20103;-65
2023/02/22 03:56:24;;;;;;;7.23;3.80;;;8.00;99.90;;;;;;4152481;28;20017;-61
2023/02/22 03:58:30;;;;;;;5.50;3.90;;;7.90;99.90;;;;;;4146813;28;20091;-63
2023/02/22 04:00:33;;;;;;;6.53;4.70;;;7.90;99.90;;;;;;4145269;28;20033;-61
2023/02/22 04:02:35;;;;;;;4.60;3.47;;;7.90;99.90;;;;;;4146625;28;20044;-62
2023/02/22 04:04:36;;;;;;;5.70;3.80;;;7.90;99.90;;;;;;4145311;28;20038;-65
2023/02/22 04:06:38;;;;;;;6.23;3.93;;;7.90;99.90;;;;;;4157494;28;20087;-62
2023/02/22 04:08:39;;;;;;;5.43;3.00;;;7.90;99.90;;;;;;4158479;28;20053;-62
2023/02/22 04:10:40;;;;;;;5.40;3.80;;;7.90;99.90;;;;;;4160972;28;20037;-62
2023/02/22 04:12:41;;;;;;;5.00;3.50;;;7.80;99.90;;;;;;4161661;28;20052;-63
2023/02/22 04:14:43;;;;;;;4.87;3.20;;;7.90;99.90;;;;;;4163211;28;20095;-61
2023/02/22 04:16:44;;;;;;;8.70;3.80;;;7.80;99.90;;;;;;4161539;28;20440;-63
2023/02/22 04:18:45;;;;;;;4.53;3.27;;;7.80;99.90;;;;;;4149463;28;20046;-62
2023/02/22 04:20:46;;;;;;;6.10;3.87;;;7.80;99.90;;;;;;4145277;28;20022;-63
2023/02/22 04:22:47;;;;;;;7.10;3.73;;;7.80;99.90;;;;;;4145490;28;20493;-68
2023/02/22 04:24:49;;;;;;;5.33;3.90;;;7.80;99.90;;;;;;4145611;28;20042;-62
2023/02/22 04:26:50;;;;;;;7.90;4.50;;;7.90;99.90;;;;;;4145133;28;20112;-61
2023/02/22 04:28:51;;;;;;;8.67;4.70;;;7.80;99.90;;;;;;4145869;28;20042;-62
2023/02/22 04:30:52;;;;;;;7.67;4.37;;;7.80;99.90;;;;;;4145697;28;20100;-62
2023/02/22 04:32:53;;;;;;;9.03;5.27;;;7.80;99.90;;;;;;4145958;28;20805;-63
2023/02/22 04:34:54;;;;;;;8.23;5.33;;;7.70;99.90;;;;;;4144577;28;20042;-63
2023/02/22 04:36:55;;;;;;;10.07;4.53;;;7.70;99.90;;;;;;4145668;28;20441;-63
2023/02/22 04:38:58;;;;;;;7.20;4.33;;;7.60;99.90;;;;;;4144514;28;20081;-65
2023/02/22 04:40:59;;;;;;;8.67;4.30;;;7.60;99.90;;;;;;4147246;28;21058;-63
2023/02/22 04:43:00;;;;;;;8.50;4.10;;;7.50;99.90;;;;;;4153069;28;20029;-62
2023/02/22 04:45:03;;;;;;;6.57;4.03;;;7.50;99.90;;;;;;4160853;28;20560;-63
2023/02/22 04:47:04;;;;;;;9.53;4.57;;;7.40;99.90;;;;;;4160023;28;20041;-63
2023/02/22 04:49:05;;;;;;;7.30;4.73;;;7.40;99.90;;;;;;4160290;28;20025;-63
2023/02/22 04:51:07;;;;;;;7.40;4.73;;;7.30;99.90;;;;;;4160939;28;20071;-62
2023/02/22 04:53:08;;;;;;;11.37;4.83;;;7.30;99.90;;;;;;4149635;28;20072;-62
2023/02/22 04:55:09;;;;;;;8.00;4.87;;;7.20;99.90;;;;;;4144865;28;20033;-63
2023/02/22 04:57:10;;;;;;;9.60;4.90;;;7.20;99.90;;;;;;4160826;28;20541;-62
2023/02/22 04:59:11;;;;;;;11.07;4.23;;;7.20;99.90;;;;;;4161403;28;20050;-64
2023/02/22 05:01:14;;;;;;;10.73;4.93;;;7.20;99.90;;;;;;4149452;28;20544;-62
2023/02/22 05:03:15;;;;;;;10.70;4.90;;;7.20;99.90;;;;;;4159936;28;20575;-62
2023/02/22 05:05:18;;;;;;;7.17;4.77;;;7.20;99.90;;;;;;4160654;28;20057;-68
2023/02/22 05:07:19;;;;;;;9.97;4.93;;;7.20;99.90;;;;;;4161161;28;20049;-62
2023/02/22 05:09:20;;;;;;;7.93;5.20;;;7.20;99.90;;;;;;4160128;28;20046;-62
2023/02/22 05:11:21;;;;;;;9.10;5.67;;;7.20;99.90;;;;;;4155598;28;20567;-62
2023/02/22 05:13:23;;;;;;;9.60;5.43;;;7.20;99.90;;;;;;4145118;28;20042;-64
2023/02/22 05:15:24;;;;;;;11.50;5.80;;;7.20;99.90;;;;;;4145482;28;20026;-63
2023/02/22 05:17:25;;;;;;;10.47;5.47;;;7.10;99.90;;;;;;4137191;28;20078;-62
2023/02/22 05:19:27;;;;;;;9.57;6.50;;;7.10;99.90;;;;;;4143606;28;20548;-69
2023/02/22 05:21:28;;;;;;;12.37;6.03;;;7.10;99.90;;;;;;4143852;28;20537;-70
2023/02/22 05:23:29;;;;;;;13.17;6.07;;;7.10;99.90;;;;;;4156395;28;20049;-64
2023/02/22 05:25:32;;;;;;;9.50;5.73;;;7.10;99.90;;;;;;4150201;28;20568;-63
2023/02/22 05:27:33;;;;;;;12.57;6.57;;;7.00;99.90;;;;;;4137592;28;20077;-63
2023/02/22 05:29:34;;;;;;;12.33;7.13;;;7.10;99.90;;;;;;4144283;28;20536;-64
2023/02/22 05:31:35;;;;;;;16.53;9.07;;;7.10;99.90;;;;;;4143909;28;20054;-62
2023/02/22 05:33:38;;;;;;;15.43;7.60;;;7.10;99.90;;;;;;4144423;28;20053;-62
2023/02/22 05:35:39;;;;;;;12.00;6.23;;;7.20;99.90;;;;;;4143689;28;20050;-63
2023/02/22 05:37:41;;;;;;;12.07;7.30;;;7.20;99.90;;;;;;4144877;28;20050;-64
2023/02/22 05:39:42;;;;;;;17.30;6.80;;;7.20;99.90;;;;;;4143894;28;20584;-63
2023/02/22 05:41:43;;;;;;;13.63;7.43;;;7.20;99.90;;;;;;4146238;28;20091;-63
2023/02/22 05:43:44;;;;;;;14.90;6.57;;;7.20;99.90;;;;;;4144239;28;20049;-63
2023/02/22 05:45:45;;;;;;;11.50;6.03;;;7.20;99.90;;;;;;4150554;28;20448;-64
2023/02/22 05:47:47;;;;;;;10.07;6.63;;;7.20;99.90;;;;;;4159279;28;20099;-65
2023/02/22 05:49:48;;;;;;;14.47;6.60;;;7.20;99.90;;;;;;4159761;28;20034;-64
2023/02/22 05:51:49;;;;;;;12.73;6.47;;;7.20;99.90;;;;;;4149714;28;20096;-63
2023/02/22 05:53:51;;;;;;;15.83;6.33;;;7.20;99.90;;;;;;4155473;28;20075;-64
2023/02/22 05:55:52;;;;;;;20.40;6.30;;;7.20;99.90;;;;;;4148402;28;20107;-64
2023/02/22 05:57:53;;;;;;;11.60;5.30;;;7.20;99.90;;;;;;4148265;28;20046;-67
2023/02/22 05:59:54;;;;;;;12.43;5.97;;;7.20;99.90;;;;;;4148462;28;20081;-62
2023/02/22 06:01:56;;;;;;;12.40;5.67;;;7.30;99.90;;;;;;4150982;28;20340;-64
2023/02/22 06:03:57;;;;;;;13.07;6.67;;;7.30;99.90;;;;;;4155603;28;20774;-74
2023/02/22 06:05:58;;;;;;;9.93;5.97;;;7.30;99.90;;;;;;4162196;28;20095;-62
2023/02/22 06:07:59;;;;;;;12.57;6.13;;;7.30;99.90;;;;;;4164190;28;20115;-66
2023/02/22 06:10:01;;;;;;;10.87;6.07;;;7.30;99.90;;;;;;4163227;28;20095;-65
2023/02/22 06:12:02;;;;;;;8.87;5.03;;;7.40;99.90;;;;;;4164089;28;20029;-65
2023/02/22 06:14:03;;;;;;;16.43;5.87;;;7.40;99.90;;;;;;4162045;28;20041;-61
2023/02/22 06:16:05;;;;;;;13.17;5.57;;;7.40;99.90;;;;;;4162817;28;20076;-65
2023/02/22 06:18:06;;;;;;;9.10;4.73;;;7.50;99.90;;;;;;4162826;28;20494;-66
2023/02/22 06:20:09;;;;;;;9.03;5.57;;;7.50;99.90;;;;;;4163992;28;20108;-64
2023/02/22 06:22:17;;;;;;;11.80;5.93;;;7.50;99.90;;;;;;4162004;28;20041;-64
2023/02/22 06:24:19;;;;;;;10.50;4.77;;;7.60;99.90;;;;;;4163830;28;20473;-63
2023/02/22 06:26:21;;;;;;;9.37;4.87;;;7.60;99.90;;;;;;4162920;28;20054;-64
2023/02/22 06:28:22;;;;;;;10.00;4.10;;;7.60;99.90;;;;;;4163428;28;20037;-64
2023/02/22 06:30:25;;;;;;;6.83;3.47;;;7.60;99.90;;;;;;4163478;28;20025;-65
2023/02/22 06:32:27;;;;;;;13.03;4.87;;;7.60;99.90;;;;;;4163432;28;20071;-64
2023/02/22 06:34:28;;;;;;;11.93;6.20;;;7.60;99.90;;;;;;4163322;28;20440;-65
2023/02/22 06:36:30;;;;;;;11.67;6.60;;;7.70;99.90;;;;;;4162753;28;20029;-70
2023/02/22 06:38:32;;;;;;;45.87;20.37;;;7.70;99.90;;;;;;4163812;28;20029;-64
2023/02/22 06:40:33;;;;;;;36.67;17.10;;;7.70;99.90;;;;;;4162368;28;20691;-63
2023/02/22 06:42:34;;;;;;;22.53;11.23;;;7.80;99.90;;;;;;4163511;28;20037;-64
2023/02/22 06:44:35;;;;;;;21.67;10.00;;;7.80;99.90;;;;;;4163089;28;20444;-63
2023/02/22 06:46:37;;;;;;;12.23;6.83;;;7.80;99.90;;;;;;4163273;28;20145;-62
2023/02/22 06:48:39;;;;;;;13.00;6.33;;;7.80;99.90;;;;;;4161635;28;20049;-76
2023/02/22 06:50:40;;;;;;;8.07;4.10;;;7.80;99.90;;;;;;4163326;28;20454;-65
2023/02/22 06:52:42;;;;;;;8.20;5.43;;;7.80;99.90;;;;;;4162269;28;20099;-63
2023/02/22 06:54:43;;;;;;;7.97;4.17;;;7.90;99.90;;;;;;4163542;28;20076;-65
2023/02/22 06:56:44;;;;;;;9.03;4.57;;;7.90;99.90;;;;;;4162419;28;20033;-64
2023/02/22 06:58:45;;;;;;;7.60;3.97;;;7.90;99.90;;;;;;4162916;28;20046;-64
2023/02/22 07:00:46;;;;;;;12.20;4.27;;;7.90;99.90;;;;;;4162455;28;20087;-64
2023/02/22 07:02:48;;;;;;;15.53;6.27;;;7.90;99.90;;;;;;4162941;28;20429;-64
2023/02/22 07:04:49;;;;;;;10.97;4.73;;;8.00;99.90;;;;;;4162922;28;20029;-64
2023/02/22 07:06:50;;;;;;;7.77;4.13;;;7.90;99.90;;;;;;4161646;28;20595;-64
2023/02/22 07:08:51;;;;;;;7.27;3.23;;;7.90;99.90;;;;;;4162482;28;20391;-63
2023/02/22 07:10:53;;;;;;;9.13;4.90;;;7.90;99.90;;;;;;4161675;28;20034;-64
2023/02/22 07:12:54;;;;;;;10.30;3.83;;;7.90;99.90;;;;;;4163246;28;20477;-65
2023/02/22 07:14:55;;;;;;;12.13;4.37;;;7.90;99.90;;;;;;4162739;28;20068;-63
2023/02/22 07:16:56;;;;;;;13.53;5.00;;;8.00;99.90;;;;;;4163102;28;20103;-64
2023/02/22 07:18:59;;;;;;;10.73;4.50;;;8.00;99.90;;;;;;4162016;28;20083;-63
2023/02/22 07:21:00;;;;;;;8.00;3.40;;;8.00;99.90;;;;;;4161753;28;20033;-64
2023/02/22 07:23:01;;;;;;;8.00;2.90;;;8.00;99.90;;;;;;4162052;28;20021;-65
2023/02/22 07:25:03;;;;;;;6.63;2.90;;;8.00;99.90;;;;;;4163056;28;20079;-63
2023/02/22 07:27:04;;;;;;;7.33;2.83;;;8.00;99.90;;;;;;4161738;28;20103;-64
2023/02/22 07:29:05;;;;;;;8.20;3.73;;;8.00;99.90;;;;;;4162908;28;20037;-66
2023/02/22 07:31:06;;;;;;;8.60;3.77;;;8.10;99.90;;;;;;4162217;28;20458;-73
2023/02/22 07:33:10;;;;;;;7.63;4.07;;;8.10;99.90;;;;;;4162208;28;20359;-74
2023/02/22 07:35:20;;;;;;;11.13;3.27;;;8.10;99.90;;;;;;4161956;28;20029;-71
2023/02/22 07:37:21;;;;;;;6.03;2.70;;;8.10;99.90;;;;;;4162299;28;20481;-63
2023/02/22 07:39:22;;;;;;;6.80;3.70;;;8.20;99.90;;;;;;4162562;28;20033;-65
2023/02/22 07:41:23;;;;;;;8.90;3.87;;;8.20;99.90;;;;;;4162099;28;20375;-63
2023/02/22 07:43:28;;;;;;;11.87;4.10;;;8.30;99.90;;;;;;4162791;28;20060;-64
2023/02/22 07:45:32;;;;;;;12.40;4.60;;;8.30;99.90;;;;;;4160637;28;20452;-64
2023/02/22 07:47:33;;;;;;;10.63;4.53;;;8.40;99.90;;;;;;4163055;28;20017;-64
2023/02/22 07:49:34;;;;;;;9.90;4.13;;;8.40;99.90;;;;;;4161444;28;20037;-63
2023/02/22 07:51:35;;;;;;;8.90;3.13;;;8.50;99.90;;;;;;4162467;28;20038;-65
2023/02/22 07:53:36;;;;;;;6.97;3.03;;;8.60;99.90;;;;;;4161310;28;20427;-66
2023/02/22 07:55:37;;;;;;;6.40;3.23;;;8.60;99.90;;;;;;4162590;28;20444;-64
2023/02/22 07:57:38;;;;;;;22.40;9.63;;;8.60;99.90;;;;;;4161542;28;20025;-67
2023/02/22 07:59:39;;;;;;;15.83;5.37;;;8.70;99.90;;;;;;4162764;28;20037;-67
2023/02/22 08:01:41;;;;;;;19.47;7.63;;;8.70;99.90;;;;;;4161498;28;20064;-65
2023/02/22 08:03:42;;;;;;;13.80;4.70;;;8.60;99.90;;;;;;4162187;28;20045;-64
2023/02/22 08:05:49;;;;;;;13.73;4.23;;;8.60;99.90;;;;;;4161643;28;20207;-68
2023/02/22 08:07:50;;;;;;;9.13;2.97;;;8.60;99.90;;;;;;4161707;28;20115;-64
2023/02/22 08:09:52;;;;;;;10.27;5.17;;;8.70;99.90;;;;;;4161523;28;20022;-64
2023/02/22 08:11:53;;;;;;;11.33;4.17;;;8.60;99.90;;;;;;4161567;28;20438;-63
2023/02/22 08:13:54;;;;;;;29.53;12.90;;;8.60;99.90;;;;;;4161720;28;20099;-62
2023/02/22 08:15:55;;;;;;;22.50;10.27;;;8.70;99.90;;;;;;4161761;28;20764;-64
2023/02/22 08:17:58;;;;;;;13.33;4.77;;;8.70;99.90;;;;;;4160722;28;20038;-64
2023/02/22 08:20:00;;;;;;;6.73;2.80;;;8.80;99.90;;;;;;4160929;28;20033;-64
2023/02/22 08:22:01;;;;;;;15.30;3.37;;;8.80;99.90;;;;;;4161890;28;20052;-64
2023/02/22 08:24:02;;;;;;;17.10;5.83;;;9.00;99.90;;;;;;4160618;28;20038;-63
2023/02/22 08:26:09;;;;;;;22.67;9.27;;;9.10;99.90;;;;;;4161953;28;20114;-63
2023/02/22 08:28:14;;;;;;;30.67;13.53;;;9.10;99.90;;;;;;4160848;28;20029;-64
2023/02/22 08:30:20;;;;;;;56.83;24.83;;;9.20;99.90;;;;;;4162180;28;20029;-65
2023/02/22 08:32:22;;;;;;;54.17;26.57;;;9.30;99.90;;;;;;4160510;28;20081;-64
2023/02/22 08:34:23;;;;;;;25.73;11.73;;;9.30;99.90;;;;;;4160518;28;20148;-70
2023/02/22 08:36:24;;;;;;;17.63;9.43;;;9.30;99.90;;;;;;4160736;28;21078;-64
2023/02/22 08:38:28;;;;;;;19.60;10.13;;;9.40;99.90;;;;;;4161552;28;20091;-64
2023/02/22 08:40:32;;;;;;;27.33;13.53;;;9.60;99.90;;;;;;4160685;28;20084;-65
2023/02/22 08:42:33;;;;;;;23.90;14.37;;;9.60;99.90;;;;;;4160831;28;20033;-64
2023/02/22 08:44:36;;;;;;;14.93;9.83;;;9.70;99.90;;;;;;4161040;28;20473;-65
2023/02/22 08:46:37;;;;;;;18.20;6.13;;;9.70;99.90;;;;;;4161492;28;20494;-72
2023/02/22 08:48:49;;;;;;;17.60;7.37;;;9.70;99.90;;;;;;4161342;28;20080;-63
2023/02/22 08:50:52;;;;;;;18.93;7.00;;;9.80;99.90;;;;;;4160680;28;20328;-64
2023/02/22 08:52:55;;;;;;;8.33;4.70;;;10.00;99.90;;;;;;4161127;28;20485;-63
2023/02/22 08:54:56;;;;;;;12.60;8.37;;;10.30;99.90;;;;;;4160183;28;20042;-64
2023/02/22 08:56:57;;;;;;;22.40;9.47;;;10.40;99.90;;;;;;4161127;28;20391;-64
2023/02/22 08:58:59;;;;;;;13.77;8.93;;;10.50;99.90;;;;;;4160349;28;20068;-64
2023/02/22 09:01:00;;;;;;;7.93;5.47;;;10.70;99.90;;;;;;4161321;28;20034;-64
2023/02/22 09:03:02;;;;;;;17.40;11.87;;;10.80;99.90;;;;;;4160355;28;20421;-64
2023/02/22 09:05:04;;;;;;;9.10;5.87;;;11.10;99.90;;;;;;4160895;28;20033;-63
2023/02/22 09:07:05;;;;;;;6.70;3.20;;;11.30;99.60;;;;;;4159711;28;20049;-69
2023/02/22 09:09:07;;;;;;;5.87;2.57;;;11.50;99.10;;;;;;4161402;28;20033;-73
2023/02/22 09:11:08;;;;;;;7.83;5.40;;;11.70;98.80;;;;;;4158815;28;20041;-66
2023/02/22 09:13:10;;;;;;;7.60;3.40;;;11.60;98.20;;;;;;4160944;28;20103;-64
2023/02/22 09:15:11;;;;;;;7.50;2.90;;;11.80;98.40;;;;;;4160133;28;20115;-64
2023/02/22 09:17:12;;;;;;;5.73;1.90;;;12.20;98.30;;;;;;4160967;28;20481;-65
2023/02/22 09:19:13;;;;;;;4.33;2.33;;;12.50;97.70;;;;;;4160170;28;20037;-63
2023/02/22 09:21:15;;;;;;;7.97;2.33;;;12.80;97.10;;;;;;4160305;28;20030;-64
2023/02/22 09:23:16;;;;;;;5.77;2.20;;;12.90;96.50;;;;;;4160808;28;20042;-64
2023/02/22 09:25:19;;;;;;;6.17;2.27;;;12.80;96.30;;;;;;4160055;28;20489;-63
2023/02/22 09:27:20;;;;;;;8.17;2.20;;;12.80;96.30;;;;;;4160703;28;20099;-64
2023/02/22 09:29:23;;;;;;;4.90;1.70;;;12.70;95.70;;;;;;4159908;28;20049;-73
2023/02/22 09:31:25;;;;;;;4.90;1.73;;;12.50;95.60;;;;;;4161394;28;20580;-63
2023/02/22 09:33:26;;;;;;;5.57;3.27;;;12.60;95.80;;;;;;4165069;28;20041;-65
2023/02/22 09:35:27;;;;;;;5.63;3.10;;;12.80;95.30;;;;;;4166617;28;20041;-64
2023/02/22 09:37:28;;;;;;;11.77;2.63;;;12.70;94.80;;;;;;4163945;28;20452;-66
2023/02/22 09:39:29;;;;;;;5.03;1.93;;;12.80;95.00;;;;;;4166809;28;20078;-64
2023/02/22 09:41:54;;;;;;;4.40;2.07;;;13.10;94.80;;;;;;4165318;28;20037;-67
2023/02/22 09:44:06;;;;;;;7.87;1.90;;;13.30;94.10;;;;;;4165849;28;20124;-64
2023/02/22 09:46:23;;;;;;;7.90;2.60;;;13.60;93.50;;;;;;4165545;28;20054;-64
2023/02/22 09:48:25;;;;;;;4.00;1.30;;;13.50;92.20;;;;;;4166450;28;20030;-64
2023/02/22 09:50:34;;;;;;;8.07;2.23;;;13.10;92.40;;;;;;4165136;28;20038;-63
2023/02/22 09:52:40;;;;;;;4.73;1.50;;;12.40;92.40;;;;;;4166347;28;20496;-64
2023/02/22 09:54:53;;;;;;;8.23;2.20;;;12.30;93.30;;;;;;4165405;28;20041;-64
2023/02/22 09:56:58;;;;;;;6.30;2.13;;;12.50;93.20;;;;;;4166498;28;20087;-64
2023/02/22 09:59:04;;;;;;;6.87;2.10;;;12.70;93.10;;;;;;4165114;28;20071;-64
2023/02/22 10:01:28;;;;;;;10.97;3.00;;;12.80;93.10;;;;;;4166145;28;20046;-63
2023/02/22 10:03:55;;;;;;;3.23;1.67;;;12.90;92.60;;;;;;4165153;28;20045;-65
2023/02/22 10:06:14;;;;;;;5.13;2.37;;;12.90;92.40;;;;;;4158705;28;20092;-63
2023/02/22 10:08:17;;;;;;;4.93;1.80;;;12.90;92.30;;;;;;4160637;28;20068;-64
2023/02/22 10:10:22;;;;;;;6.30;1.60;;;12.80;92.60;;;;;;4166406;28;20041;-64
2023/02/22 10:12:37;;;;;;;4.10;1.60;;;12.50;92.90;;;;;;4165007;28;20515;-63
2023/02/22 10:14:52;;;;;;;3.47;1.60;;;12.30;92.90;;;;;;4166417;28;20026;-65
2023/02/22 10:17:21;;;;;;;8.70;1.97;;;12.20;92.90;;;;;;4165317;28;20115;-71
2023/02/22 10:19:37;;;;;;;6.97;1.90;;;12.10;92.60;;;;;;4165965;28;20367;-65
2023/02/22 10:22:25;;;;;;;3.33;1.50;;;11.90;93.00;;;;;;4165261;28;20436;-67
2023/02/22 10:24:44;;;;;;;4.87;1.80;;;11.70;93.00;;;;;;4141995;28;20057;-65
2023/02/22 10:26:45;;;;;;;4.83;1.67;;;11.70;92.70;;;;;;4166116;28;20037;-63
2023/02/22 10:29:05;;;;;;;7.07;3.00;;;11.20;93.20;;;;;;4165386;28;20112;-65
2023/02/22 10:31:11;;;;;;;6.35;2.42;;;11.20;93.70;;;;;;4164949;28;20041;-64
2023/02/22 10:33:19;;;;;;;6.37;1.30;;;11.10;93.80;;;;;;4163318;28;20127;-64
2023/02/22 10:35:27;;;;;;;6.27;1.70;;;10.90;93.40;;;;;;4166100;28;20045;-65
2023/02/22 10:37:31;;;;;;;3.30;1.47;;;10.60;93.90;;;;;;4165098;28;20029;-64
2023/02/22 10:39:35;;;;;;;4.07;1.87;;;10.50;94.10;;;;;;4166026;28;20087;-68
2023/02/22 10:41:43;;;;;;;8.80;1.70;;;10.70;94.40;;;;;;4164564;28;20064;-63
2023/02/22 10:43:44;;;;;;;5.67;2.07;;;10.80;94.20;;;;;;4164634;28;20022;-64
2023/02/22 10:45:45;;;;;;;12.70;2.40;;;10.80;94.30;;;;;;4162736;28;20080;-64
2023/02/22 10:47:48;;;;;;;6.23;2.23;;;10.90;94.30;;;;;;4163249;28;20041;-65
2023/02/22 10:49:54;;;;;;;6.13;1.70;;;11.10;94.30;;;;;;4163315;28;20128;-65
2023/02/22 10:52:00;;;;;;;10.30;2.87;;;11.00;93.90;;;;;;4162663;28;20037;-65
2023/02/22 10:54:13;;;;;;;6.43;1.93;;;11.00;94.10;;;;;;4163264;28;20025;-64